createdAt,value
2023-04-20T05:36:33.635Z,28.35
2023-04-20T05:39:41.180Z,24.25
2023-04-20T05:42:43.961Z,23.90
2023-04-20T05:45:46.754Z,25.55
2023-04-20T05:48:49.535Z,26.77
2023-04-20T05:51:53.648Z,22.88
2023-04-20T05:54:56.486Z,21.23
2023-04-20T05:58:01.798Z,21.90
2023-04-20T06:01:04.640Z,23.23
2023-04-20T06:04:07.550Z,22.52
2023-04-20T06:07:12.601Z,24.80
2023-04-20T06:24:55.329Z,25.20
2023-04-20T06:27:57.821Z,22.23
2023-04-20T06:31:00.343Z,23.52
2023-04-20T06:34:02.912Z,24.40
2023-04-20T06:44:43.209Z,21.95
2023-04-20T06:47:45.855Z,24.92
2023-04-20T06:50:49.051Z,26.33
2023-04-20T06:53:51.671Z,23.63
2023-04-20T06:56:54.222Z,30.88
2023-04-20T06:59:58.943Z,25.55
2023-04-20T07:03:02.869Z,21.73
2023-04-20T07:06:07.658Z,18.52
2023-04-20T07:09:11.295Z,27.75
2023-04-20T07:12:15.816Z,26.35
2023-04-20T07:15:19.823Z,27.67
2023-04-20T07:18:22.357Z,25.38
2023-04-20T07:21:24.896Z,23.02
2023-04-20T07:24:29.029Z,33.83
2023-04-20T07:27:33.588Z,29.77
2023-04-20T07:30:37.728Z,26.83
2023-04-20T07:33:40.594Z,28.60
2023-04-20T07:36:43.102Z,28.23
2023-04-20T07:39:45.600Z,31.60
2023-04-20T07:42:48.108Z,30.63
2023-04-20T07:45:52.523Z,30.02
2023-04-20T07:48:55.077Z,28.98
2023-04-20T07:52:09.261Z,26.13
2023-04-20T07:55:18.022Z,28.67
2023-04-20T07:58:21.613Z,27.05
2023-04-20T08:01:26.300Z,25.30
2023-04-20T08:04:29.256Z,29.17
2023-04-20T08:07:31.921Z,27.80
2023-04-20T08:10:35.160Z,23.02
2023-04-20T08:13:37.779Z,22.67
2023-04-20T08:16:41.672Z,25.13
2023-04-20T08:19:45.990Z,28.90
2023-04-20T08:22:49.343Z,22.88
2023-04-20T08:25:51.844Z,26.20
2023-04-20T08:28:54.327Z,28.85
2023-04-20T08:31:58.435Z,22.23
2023-04-20T08:35:01.046Z,23.05
2023-04-20T08:38:03.770Z,23.83
2023-04-20T08:41:06.632Z,20.70
2023-04-20T08:44:09.542Z,25.05
2023-04-20T08:47:14.017Z,25.13
2023-04-20T08:50:17.769Z,23.88
2023-04-20T08:53:20.642Z,27.60
2023-04-20T08:56:34.739Z,25.60
2023-04-20T08:59:38.082Z,30.75
2023-04-20T09:02:51.842Z,27.75
2023-04-20T09:05:54.430Z,26.70
2023-04-20T09:08:56.959Z,25.80
2023-04-20T09:12:03.856Z,26.73
2023-04-20T09:15:07.428Z,27.08
2023-04-20T09:18:15.754Z,26.70
2023-04-20T09:21:18.250Z,22.58
2023-04-20T09:24:22.189Z,27.17
2023-04-20T09:27:26.223Z,26.20
2023-04-20T09:30:39.034Z,19.90
2023-04-20T09:33:42.975Z,26.98
2023-04-20T09:36:47.388Z,26.08
2023-04-20T09:39:50.481Z,27.60
2023-04-20T09:42:54.539Z,26.33
2023-04-20T09:45:57.540Z,24.40
2023-04-20T09:49:02.586Z,25.88
2023-04-20T09:52:06.282Z,27.65
2023-04-20T09:55:11.580Z,26.73
2023-04-20T09:58:14.592Z,29.58
2023-04-20T10:01:17.217Z,30.52
2023-04-20T10:04:22.142Z,26.80
2023-04-20T10:07:27.335Z,29.20
2023-04-20T10:10:31.081Z,26.15
2023-04-20T10:13:35.203Z,25.15
2023-04-20T10:16:37.835Z,26.60
2023-04-20T10:19:43.435Z,25.48
2023-04-20T10:22:46.396Z,29.45
2023-04-20T10:25:59.728Z,20.73
2023-04-20T10:29:02.350Z,23.10
2023-04-20T10:32:05.203Z,24.52
2023-04-20T10:35:13.932Z,22.40
2023-04-20T10:38:17.123Z,22.63
2023-04-20T10:41:20.968Z,20.00
2023-04-20T10:44:23.553Z,20.13
2023-04-20T10:47:30.986Z,18.80
2023-04-20T10:50:35.106Z,20.08
2023-04-20T10:53:37.589Z,20.77
2023-04-20T10:56:41.849Z,20.15
2023-04-20T10:59:44.369Z,20.33
2023-04-20T11:02:49.176Z,19.02
2023-04-20T11:05:53.047Z,23.23
2023-04-20T11:08:55.711Z,19.40
2023-04-20T11:12:02.801Z,22.90
2023-04-20T11:15:06.266Z,17.63
2023-04-20T11:18:09.453Z,21.52
2023-04-20T11:21:13.391Z,18.20
2023-04-20T11:24:20.126Z,18.40
2023-04-20T11:27:24.761Z,17.60
2023-04-20T11:30:27.275Z,19.55
2023-04-20T11:33:31.365Z,18.85
2023-04-20T11:36:40.524Z,15.45
2023-04-20T11:39:43.115Z,17.77
2023-04-20T11:42:46.331Z,17.02
2023-04-20T11:45:49.285Z,15.57
2023-04-20T11:48:51.848Z,16.73
2023-04-20T11:51:56.159Z,13.40
2023-04-20T11:54:58.701Z,12.80
2023-04-20T11:58:01.222Z,15.02
2023-04-20T12:01:05.373Z,12.10
2023-04-20T12:04:08.643Z,17.67
2023-04-20T12:07:12.764Z,12.90
2023-04-20T12:10:15.234Z,12.10
2023-04-20T12:13:17.812Z,11.27
2023-04-20T12:16:20.344Z,12.48
2023-04-20T12:19:23.296Z,13.82
2023-04-20T12:22:27.464Z,11.70
2023-04-20T12:25:30.058Z,11.02
2023-04-20T12:28:33.107Z,15.55
2023-04-20T12:31:36.373Z,12.18
2023-04-20T12:34:39.134Z,13.40
2023-04-20T12:37:43.029Z,12.02
2023-04-20T12:40:45.622Z,10.02
2023-04-20T12:43:48.121Z,11.23
2023-04-20T12:46:50.752Z,12.00
2023-04-20T12:49:54.103Z,13.23
2023-04-20T12:52:58.512Z,12.50
2023-04-20T12:56:01.614Z,10.43
2023-04-20T12:59:04.439Z,10.15
2023-04-20T13:02:07.381Z,12.00
2023-04-20T13:05:10.974Z,10.55
2023-04-20T13:08:14.865Z,10.20
2023-04-20T13:11:18.010Z,12.23
2023-04-20T13:14:20.795Z,9.40
2023-04-20T13:17:25.884Z,8.88
2023-04-20T13:20:29.820Z,13.07
2023-04-20T13:23:33.763Z,10.00
2023-04-20T13:26:36.697Z,13.35
2023-04-20T13:29:40.042Z,11.27
2023-04-20T13:32:43.000Z,9.48
2023-04-20T13:35:45.560Z,6.97
2023-04-20T13:38:49.893Z,11.07
2023-04-20T13:41:52.396Z,11.38
2023-04-20T13:44:54.957Z,9.52
2023-04-20T13:47:58.166Z,8.65
2023-04-20T13:51:00.733Z,6.63
2023-04-20T13:54:04.706Z,10.20
2023-04-20T13:57:07.214Z,7.65
2023-04-20T14:00:11.007Z,10.52
2023-04-20T14:03:14.285Z,7.90
2023-04-20T14:06:16.960Z,6.30
2023-04-20T14:09:21.376Z,7.65
2023-04-20T14:12:24.175Z,8.82
2023-04-20T14:15:27.228Z,7.78
2023-04-20T14:18:29.711Z,7.57
2023-04-20T14:21:32.860Z,7.03
2023-04-20T14:24:36.689Z,8.18
2023-04-20T14:27:39.203Z,6.22
2023-04-20T14:30:41.921Z,8.13
2023-04-20T14:33:44.823Z,9.68
2023-04-20T14:36:47.341Z,10.48
2023-04-20T14:39:51.258Z,7.55
2023-04-20T14:42:54.040Z,6.72
2023-04-20T14:45:58.684Z,8.75
2023-04-20T14:49:01.373Z,9.48
2023-04-20T14:52:04.248Z,6.35
2023-04-20T14:55:09.254Z,6.82
2023-04-20T14:58:11.823Z,8.55
2023-04-20T15:01:14.757Z,5.20
2023-04-20T15:04:17.567Z,7.28
2023-04-20T15:07:20.360Z,6.53
2023-04-20T15:10:24.542Z,8.18
2023-04-20T15:13:27.194Z,8.98
2023-04-20T15:16:29.877Z,7.18
2023-04-20T15:19:32.477Z,9.98
2023-04-20T15:22:35.216Z,10.80
2023-04-20T15:25:39.192Z,7.68
2023-04-20T15:28:41.760Z,9.57
2023-04-20T15:31:45.571Z,12.48
2023-04-20T15:34:48.177Z,15.13
2023-04-20T15:37:50.750Z,6.45
2023-04-20T15:40:55.420Z,6.38
2023-04-20T15:43:57.931Z,11.95
2023-04-20T15:47:01.739Z,7.45
2023-04-20T15:50:04.510Z,8.07
2023-04-20T15:53:07.338Z,6.70
2023-04-20T15:56:12.013Z,5.35
2023-04-20T15:59:14.528Z,7.30
2023-04-20T16:02:17.349Z,8.13
2023-04-20T16:05:19.935Z,7.00
2023-04-20T16:08:22.493Z,7.65
2023-04-20T16:11:26.390Z,5.88
2023-04-20T16:14:29.013Z,5.53
2023-04-20T16:17:31.624Z,5.85
2023-04-20T16:20:34.170Z,7.47
2023-04-20T16:23:36.695Z,5.47
2023-04-20T16:26:41.309Z,12.10
2023-04-20T16:29:43.874Z,5.30
2023-04-20T16:32:46.654Z,8.43
2023-04-20T16:35:49.215Z,7.57
2023-04-20T16:38:51.676Z,5.00
2023-04-20T16:41:56.928Z,6.13
2023-04-20T16:44:59.514Z,6.88
2023-04-20T16:48:02.412Z,9.02
2023-04-20T16:51:05.202Z,6.43
2023-04-20T16:54:08.094Z,6.22
2023-04-20T16:57:11.910Z,7.13
2023-04-20T17:00:15.569Z,9.27
2023-04-20T17:03:18.240Z,10.57
2023-04-20T17:06:21.239Z,7.60
2023-04-20T17:09:24.105Z,8.77
2023-04-20T17:12:27.933Z,6.03
2023-04-20T17:15:30.446Z,9.27
2023-04-20T17:18:34.262Z,10.30
2023-04-20T17:21:36.804Z,9.48
2023-04-20T17:24:39.310Z,6.30
2023-04-20T17:27:43.283Z,5.50
2023-04-20T17:30:45.960Z,5.53
2023-04-20T17:33:48.509Z,8.63
2023-04-20T17:36:50.961Z,8.50
2023-04-20T17:39:53.492Z,5.53
2023-04-20T17:42:57.303Z,6.43
2023-04-20T17:46:00.766Z,9.00
2023-04-20T17:49:03.299Z,7.68
2023-04-20T17:52:06.269Z,6.68
2023-04-20T17:55:09.552Z,5.28
2023-04-20T17:58:13.832Z,6.72
2023-04-20T18:01:16.629Z,7.20
2023-04-20T18:04:19.442Z,5.10
2023-04-20T18:07:22.194Z,7.57
2023-04-20T18:10:24.696Z,8.73
2023-04-20T18:13:28.860Z,8.45
2023-04-20T18:16:31.350Z,7.93
2023-04-20T18:19:33.820Z,5.78
2023-04-20T18:22:36.649Z,6.95
2023-04-20T18:25:39.206Z,6.43
2023-04-20T18:28:43.073Z,6.78
2023-04-20T18:31:46.480Z,7.75
2023-04-20T18:34:49.122Z,10.05
2023-04-20T18:37:53.617Z,9.20
2023-04-20T18:40:56.210Z,10.60
2023-04-20T18:44:01.285Z,10.43
2023-04-20T18:47:03.897Z,9.57
2023-04-20T18:50:07.599Z,7.93
2023-04-20T18:53:10.154Z,9.18
2023-04-20T18:56:12.709Z,9.07
2023-04-20T18:59:16.517Z,8.40
2023-04-20T19:02:20.242Z,7.25
2023-04-20T19:05:23.327Z,11.35
2023-04-20T19:08:26.207Z,9.02
2023-04-20T19:11:28.950Z,6.22
2023-04-20T19:14:32.752Z,7.20
2023-04-20T19:17:36.047Z,7.25
2023-04-20T19:20:38.853Z,12.73
2023-04-20T19:23:41.761Z,7.93
2023-04-20T19:26:44.302Z,10.45
2023-04-20T19:29:48.131Z,8.65
2023-04-20T19:32:50.610Z,8.82
2023-04-20T19:35:53.568Z,7.93
2023-04-20T19:38:56.303Z,11.20
2023-04-20T19:41:58.821Z,9.02
2023-04-20T19:45:03.714Z,7.55
2023-04-20T19:48:06.719Z,10.65
2023-04-20T19:51:10.461Z,6.20
2023-04-20T19:54:16.528Z,8.25
2023-04-20T19:57:19.044Z,8.38
2023-04-20T20:00:22.987Z,10.65
2023-04-20T20:03:27.347Z,11.70
2023-04-20T20:06:30.105Z,16.35
2023-04-20T20:09:32.585Z,9.18
2023-04-20T20:31:08.964Z,10.82
